Time;durP1;ratioP1;P1;durP2;ratioP2;P2;SDS_P1;SDS_P2;PMS_P1;PMS_P2;Temp;Humidity;BMP_temperature;BMP_pressure;BME280_temperature;BME280_humidity;BME280_pressure;Samples;Min_cycle;Max_cycle;Signal;HPM_P1;HPM_P2
2023/04/07 00:02:36;;;;;;;5.68;3.60;;;10.00;99.90;;;;;;5013130;28;20030;-87
2023/04/07 00:05:11;;;;;;;8.45;4.10;;;10.00;99.90;;;;;;5013175;28;20458;-87
2023/04/07 00:07:53;;;;;;;12.45;3.58;;;10.90;99.90;;;;;;5012155;28;20109;-87
2023/04/07 00:10:18;;;;;;;8.25;3.38;;;10.60;99.90;;;;;;5011770;28;20041;-87
2023/04/07 00:12:53;;;;;;;15.75;4.32;;;10.00;99.90;;;;;;5012162;28;20394;-87
2023/04/07 00:15:18;;;;;;;8.55;3.92;;;10.50;99.90;;;;;;5012000;28;20026;-86
2023/04/07 00:17:59;;;;;;;14.10;4.15;;;10.80;99.90;;;;;;5012726;28;20034;-87
2023/04/07 00:20:25;;;;;;;8.63;3.58;;;10.70;99.90;;;;;;5012794;28;20102;-87
2023/04/07 00:22:50;;;;;;;6.22;4.65;;;10.90;99.90;;;;;;5011802;28;20058;-87
2023/04/07 00:25:22;;;;;;;7.88;4.30;;;11.20;99.90;;;;;;5012864;28;20054;-88
2023/04/07 00:27:48;;;;;;;9.23;4.65;;;9.60;99.90;;;;;;5012381;28;20041;-88
2023/04/07 00:30:14;;;;;;;11.98;5.03;;;10.10;99.90;;;;;;5012889;28;20049;-88
2023/04/07 00:32:39;;;;;;;11.07;4.68;;;10.10;99.90;;;;;;5012589;28;20402;-88
2023/04/07 00:35:05;;;;;;;9.02;4.80;;;10.10;99.90;;;;;;5015135;28;20037;-88
2023/04/07 00:37:31;;;;;;;11.60;5.18;;;10.10;99.90;;;;;;5016722;28;20022;-87
2023/04/07 00:39:58;;;;;;;9.88;4.85;;;10.20;99.90;;;;;;5016419;28;20049;-86
2023/04/07 00:42:23;;;;;;;10.15;4.78;;;10.10;99.90;;;;;;5016236;28;20061;-87
2023/04/07 00:44:49;;;;;;;6.38;4.68;;;10.10;99.90;;;;;;5016300;28;20061;-87
2023/04/07 00:47:15;;;;;;;10.20;4.50;;;10.10;99.90;;;;;;5016382;28;20028;-88
2023/04/07 00:49:41;;;;;;;10.60;4.45;;;10.10;99.90;;;;;;5015379;28;20037;-87
2023/04/07 00:52:10;;;;;;;6.72;4.40;;;10.10;99.90;;;;;;5016392;28;20038;-88
2023/04/07 00:54:36;;;;;;;12.45;4.60;;;10.10;99.90;;;;;;5017696;28;20478;-87
2023/04/07 00:57:02;;;;;;;16.63;4.78;;;10.10;99.90;;;;;;5015998;28;20109;-86
2023/04/07 00:59:30;;;;;;;10.20;4.78;;;10.10;99.90;;;;;;5016297;28;20443;-88
2023/04/07 01:02:21;;;;;;;10.85;3.80;;;10.10;99.90;;;;;;5016257;28;20088;-88
2023/04/07 01:05:20;;;;;;;7.47;4.05;;;10.10;99.90;;;;;;5015479;28;20037;-87
2023/04/07 01:08:09;;;;;;;14.07;4.80;;;10.10;99.90;;;;;;5015801;28;20053;-87
2023/04/07 01:10:52;;;;;;;9.55;4.22;;;10.10;99.90;;;;;;5015004;28;20033;-87
2023/04/07 01:13:40;;;;;;;9.57;3.60;;;10.10;99.90;;;;;;5016022;28;20071;-87
2023/04/07 01:16:12;;;;;;;11.02;3.80;;;10.10;99.90;;;;;;5015630;28;20310;-87
2023/04/07 01:18:39;;;;;;;10.10;4.22;;;10.10;99.90;;;;;;5014766;28;20474;-87
2023/04/07 01:21:14;;;;;;;13.05;3.70;;;10.10;99.90;;;;;;5015616;28;20033;-88
2023/04/07 01:23:54;;;;;;;12.25;3.72;;;10.10;99.90;;;;;;5016097;28;20108;-87
2023/04/07 01:26:32;;;;;;;12.95;3.33;;;10.00;99.90;;;;;;5015509;28;20029;-86
2023/04/07 01:29:31;;;;;;;13.60;3.85;;;10.00;99.90;;;;;;5015751;28;20029;-87
2023/04/07 01:31:59;;;;;;;9.95;3.47;;;10.00;99.90;;;;;;5014579;28;20029;-86
2023/04/07 01:34:28;;;;;;;8.43;3.83;;;10.00;99.90;;;;;;5015570;28;20022;-87
2023/04/07 01:36:55;;;;;;;11.55;3.88;;;10.10;99.90;;;;;;5015412;28;20109;-87
2023/04/07 01:39:21;;;;;;;12.63;3.92;;;10.10;99.90;;;;;;5014797;28;20030;-88
2023/04/07 01:41:49;;;;;;;11.73;4.22;;;10.10;99.90;;;;;;5015467;28;20026;-88
2023/04/07 01:44:16;;;;;;;12.18;3.67;;;10.10;99.90;;;;;;5015610;28;20025;-86
2023/04/07 01:46:42;;;;;;;11.07;3.65;;;10.10;99.90;;;;;;5013592;28;20084;-86
2023/04/07 01:49:08;;;;;;;12.52;3.20;;;10.30;99.90;;;;;;5014753;28;20425;-86
2023/04/07 01:51:34;;;;;;;15.82;3.63;;;10.40;99.90;;;;;;5014668;28;20064;-86
2023/04/07 01:54:01;;;;;;;7.47;3.30;;;10.00;99.90;;;;;;5014399;28;20040;-86
2023/04/07 01:56:26;;;;;;;13.85;4.35;;;10.70;99.90;;;;;;5014969;28;20026;-86
2023/04/07 01:58:52;;;;;;;15.15;3.67;;;9.90;99.90;;;;;;5014746;28;20029;-86
2023/04/07 02:01:18;;;;;;;14.80;2.80;;;10.60;99.90;;;;;;5014320;28;20034;-86
2023/04/07 02:04:39;;;;;;;10.05;3.60;;;11.20;99.90;;;;;;5014486;28;20088;-87
2023/04/07 02:07:28;;;;;;;9.90;2.95;;;9.80;99.90;;;;;;4987146;28;20034;-86
2023/04/07 02:10:12;;;;;;;8.68;3.40;;;9.90;99.90;;;;;;5014713;28;20065;-87
2023/04/07 02:12:40;;;;;;;12.15;3.13;;;9.20;99.90;;;;;;5013592;28;20041;-87
2023/04/07 02:15:08;;;;;;;16.50;4.03;;;10.40;99.90;;;;;;5013684;28;20022;-86
2023/04/07 02:17:36;;;;;;;12.57;4.13;;;9.90;99.90;;;;;;5015536;28;20026;-87
2023/04/07 02:20:04;;;;;;;21.63;3.75;;;10.00;99.90;;;;;;5014983;28;20064;-88
2023/04/07 02:22:30;;;;;;;7.32;2.55;;;9.90;99.90;;;;;;5014277;28;20032;-86
2023/04/07 02:24:56;;;;;;;17.00;3.58;;;10.80;99.90;;;;;;5014478;28;20553;-87
2023/04/07 02:27:33;;;;;;;21.77;4.20;;;9.90;99.90;;;;;;5013956;28;20185;-87
2023/04/07 02:29:59;;;;;;;13.50;3.63;;;10.70;99.90;;;;;;5014665;28;20022;-87
2023/04/07 02:32:25;;;;;;;16.95;3.58;;;10.70;99.90;;;;;;5014573;28;20044;-87
2023/04/07 02:34:50;;;;;;;18.27;3.90;;;10.40;99.90;;;;;;5013572;28;20028;-87
2023/04/07 02:37:25;;;;;;;14.65;3.97;;;10.60;99.90;;;;;;5014423;28;20026;-87
2023/04/07 02:39:50;;;;;;;19.00;4.03;;;10.10;99.90;;;;;;5013976;28;20416;-86
2023/04/07 02:42:16;;;;;;;14.27;3.55;;;9.70;99.90;;;;;;5013589;28;20024;-87
2023/04/07 02:44:41;;;;;;;13.48;3.92;;;9.90;99.90;;;;;;5014147;28;20109;-86
2023/04/07 02:47:25;;;;;;;13.77;4.10;;;10.80;99.90;;;;;;5014418;28;20053;-87
2023/04/07 02:49:51;;;;;;;20.42;4.78;;;9.70;99.90;;;;;;5012724;28;20481;-87
2023/04/07 02:52:16;;;;;;;17.48;5.40;;;10.40;99.90;;;;;;5013955;28;20044;-86
2023/04/07 02:54:42;;;;;;;12.57;4.38;;;10.70;99.90;;;;;;5013856;28;20467;-87
2023/04/07 02:57:08;;;;;;;15.88;4.00;;;9.90;99.90;;;;;;5013229;28;20064;-88
2023/04/07 02:59:34;;;;;;;20.90;5.68;;;9.90;99.90;;;;;;5013990;28;20018;-87
2023/04/07 03:01:59;;;;;;;15.32;4.68;;;9.90;99.90;;;;;;5013866;28;20492;-88
2023/04/07 03:04:25;;;;;;;24.20;5.38;;;9.90;99.90;;;;;;5013365;28;20029;-88
2023/04/07 03:06:50;;;;;;;19.65;5.03;;;9.90;99.90;;;;;;5013484;28;20109;-88
2023/04/07 03:09:16;;;;;;;12.30;4.28;;;9.90;99.90;;;;;;5013598;28;20026;-87
2023/04/07 03:11:42;;;;;;;10.60;4.55;;;9.90;99.90;;;;;;5012484;28;20046;-86
2023/04/07 03:14:10;;;;;;;14.73;4.70;;;9.80;99.90;;;;;;5004193;22;20197;-87
2023/04/07 03:16:36;;;;;;;15.75;4.50;;;9.90;99.90;;;;;;4993203;28;20034;-87
2023/04/07 03:19:01;;;;;;;11.65;4.68;;;10.50;99.90;;;;;;4994785;28;20027;-88
2023/04/07 03:21:27;;;;;;;16.48;5.10;;;10.70;99.90;;;;;;4993794;28;20062;-87
2023/04/07 03:24:11;;;;;;;11.98;4.45;;;11.20;99.90;;;;;;4993382;28;20022;-87
2023/04/07 03:26:37;;;;;;;14.60;4.28;;;10.20;99.90;;;;;;4994044;28;20033;-86
2023/04/07 03:29:20;;;;;;;13.75;4.30;;;10.50;99.90;;;;;;4994082;28;20022;-87
2023/04/07 03:31:46;;;;;;;23.20;4.43;;;10.40;99.90;;;;;;4993235;28;20044;-87
2023/04/07 03:34:30;;;;;;;11.48;4.43;;;10.90;99.90;;;;;;4993988;28;20105;-87
2023/04/07 03:36:55;;;;;;;17.00;4.63;;;10.80;99.90;;;;;;4993256;28;20029;-87
2023/04/07 03:39:22;;;;;;;15.05;4.10;;;9.90;99.90;;;;;;4994505;28;20027;-88
2023/04/07 03:41:47;;;;;;;12.75;4.32;;;10.80;99.90;;;;;;4994368;28;20027;-87
2023/04/07 03:44:19;;;;;;;15.05;4.57;;;11.20;99.90;;;;;;4993606;28;20022;-88
2023/04/07 03:46:45;;;;;;;13.98;3.92;;;10.70;99.90;;;;;;4992788;28;20450;-87
2023/04/07 03:49:11;;;;;;;15.65;4.53;;;9.80;99.90;;;;;;4993847;28;20030;-88
2023/04/07 03:51:37;;;;;;;16.85;4.22;;;10.50;99.90;;;;;;4992760;28;20093;-87
2023/04/07 03:54:14;;;;;;;11.18;4.18;;;10.20;99.90;;;;;;4993732;28;20084;-87
2023/04/07 03:56:40;;;;;;;17.02;4.82;;;10.30;99.90;;;;;;4993410;28;20026;-88
2023/04/07 03:59:06;;;;;;;15.63;3.90;;;10.30;99.90;;;;;;4992841;28;20116;-88
2023/04/07 04:01:46;;;;;;;14.43;3.95;;;9.80;99.90;;;;;;4993314;28;20026;-87
2023/04/07 04:04:12;;;;;;;15.27;4.90;;;11.00;99.90;;;;;;4993615;28;20454;-87
2023/04/07 04:06:37;;;;;;;11.90;4.40;;;9.70;99.90;;;;;;4992739;28;20105;-88
2023/04/07 04:09:03;;;;;;;12.40;4.35;;;9.70;99.90;;;;;;4992951;28;20030;-87
2023/04/07 04:11:28;;;;;;;9.70;3.78;;;9.80;99.90;;;;;;4992937;28;20034;-87
2023/04/07 04:14:06;;;;;;;8.77;4.43;;;9.70;99.90;;;;;;4990420;28;20403;-87
2023/04/07 04:16:34;;;;;;;14.25;4.68;;;9.60;99.90;;;;;;4998595;28;20084;-88
2023/04/07 04:19:01;;;;;;;14.32;4.43;;;9.70;99.90;;;;;;5012868;28;20389;-87
2023/04/07 04:21:41;;;;;;;18.58;4.88;;;10.50;99.90;;;;;;5012144;28;20034;-86
2023/04/07 04:24:07;;;;;;;14.55;5.03;;;9.50;99.90;;;;;;5012394;28;20076;-86
2023/04/07 04:26:33;;;;;;;17.60;5.97;;;11.10;99.90;;;;;;5012576;28;20026;-86
2023/04/07 04:28:58;;;;;;;13.13;4.70;;;10.40;99.90;;;;;;5012147;28;20037;-87
2023/04/07 04:31:36;;;;;;;16.98;5.72;;;11.10;99.90;;;;;;5012393;28;20066;-87
2023/04/07 04:34:01;;;;;;;15.20;5.47;;;9.70;99.90;;;;;;5012216;28;20262;-87
2023/04/07 04:36:27;;;;;;;20.90;5.45;;;9.80;99.90;;;;;;5012732;28;20064;-86
2023/04/07 04:38:52;;;;;;;13.73;5.07;;;9.90;99.90;;;;;;5012231;28;20029;-87
2023/04/07 04:41:23;;;;;;;10.13;5.03;;;9.80;99.90;;;;;;5011665;28;20073;-87
2023/04/07 04:43:49;;;;;;;12.07;5.93;;;9.80;99.90;;;;;;5012347;28;20485;-87
2023/04/07 04:46:15;;;;;;;15.05;4.28;;;10.60;99.90;;;;;;5012433;28;20057;-87
2023/04/07 04:48:41;;;;;;;9.82;4.40;;;9.80;99.90;;;;;;5011768;28;20108;-86
2023/04/07 04:51:12;;;;;;;13.10;3.85;;;9.80;99.90;;;;;;5012319;28;20126;-86
2023/04/07 04:53:38;;;;;;;10.73;3.72;;;10.60;99.90;;;;;;5012316;28;20033;-87
2023/04/07 04:56:10;;;;;;;9.13;3.50;;;10.30;99.90;;;;;;5011913;28;20104;-87
2023/04/07 04:58:52;;;;;;;8.18;3.80;;;10.70;99.90;;;;;;5011933;28;20026;-87
2023/04/07 05:01:18;;;;;;;10.05;2.90;;;9.80;99.90;;;;;;5012619;28;20018;-87
2023/04/07 05:03:43;;;;;;;9.73;3.40;;;9.90;99.90;;;;;;5013543;28;20036;-87
2023/04/07 05:06:17;;;;;;;8.18;2.63;;;10.30;99.90;;;;;;5012173;28;20022;-87
2023/04/07 05:08:43;;;;;;;7.38;3.30;;;10.50;99.90;;;;;;5011534;28;20032;-87
2023/04/07 05:11:21;;;;;;;5.18;3.38;;;9.90;99.90;;;;;;5011415;28;20026;-87
2023/04/07 05:13:46;;;;;;;8.75;3.05;;;9.90;99.90;;;;;;5010230;28;20053;-87
2023/04/07 05:16:12;;;;;;;9.35;3.10;;;10.60;99.90;;;;;;5011230;28;20049;-86
2023/04/07 05:18:40;;;;;;;13.20;3.97;;;9.90;99.90;;;;;;5012204;28;20501;-86
2023/04/07 05:21:06;;;;;;;11.35;2.92;;;10.10;99.90;;;;;;5013391;28;20045;-86
2023/04/07 05:23:32;;;;;;;6.28;2.40;;;10.50;99.90;;;;;;5014722;28;20026;-87
2023/04/07 05:25:57;;;;;;;11.35;2.40;;;10.70;99.90;;;;;;5015154;28;20018;-86
2023/04/07 05:28:24;;;;;;;4.78;2.45;;;10.00;99.90;;;;;;5015695;28;20030;-87
2023/04/07 05:30:49;;;;;;;8.73;2.97;;;10.00;99.90;;;;;;5007975;28;20073;-87
2023/04/07 05:33:15;;;;;;;10.85;2.53;;;9.90;99.90;;;;;;4995634;28;20442;-87
2023/04/07 05:35:43;;;;;;;10.90;3.00;;;10.60;99.90;;;;;;4995916;28;20029;-86
2023/04/07 05:38:09;;;;;;;7.53;2.75;;;10.00;99.90;;;;;;4995687;28;20027;-88
2023/04/07 05:40:35;;;;;;;6.38;2.53;;;9.90;99.90;;;;;;4994734;28;20022;-87
2023/04/07 05:43:00;;;;;;;7.38;2.80;;;10.00;99.90;;;;;;4995019;28;20045;-86
2023/04/07 05:45:26;;;;;;;7.47;2.85;;;10.00;99.90;;;;;;4993851;28;20506;-87
2023/04/07 05:47:51;;;;;;;7.57;2.50;;;10.00;99.90;;;;;;4993715;28;20026;-87
2023/04/07 05:50:17;;;;;;;6.25;2.63;;;10.20;99.90;;;;;;4994813;28;20038;-87
2023/04/07 05:52:43;;;;;;;7.97;2.65;;;10.00;99.90;;;;;;4993465;28;20041;-87
2023/04/07 05:55:08;;;;;;;10.38;3.10;;;10.10;99.90;;;;;;4994479;28;20021;-87
2023/04/07 05:57:34;;;;;;;9.10;2.85;;;10.10;99.90;;;;;;4995078;28;20034;-87
2023/04/07 06:00:00;;;;;;;13.82;3.17;;;10.10;99.90;;;;;;4993947;28;20100;-87
2023/04/07 06:02:25;;;;;;;6.95;2.58;;;10.10;99.90;;;;;;4995246;28;20113;-87
2023/04/07 06:04:51;;;;;;;7.43;3.00;;;10.10;99.90;;;;;;4994526;28;20018;-86
2023/04/07 06:07:17;;;;;;;7.75;1.60;;;10.10;99.90;;;;;;4994589;28;20034;-87
2023/04/07 06:09:42;;;;;;;5.72;1.98;;;10.00;99.90;;;;;;4994721;28;20019;-87
2023/04/07 06:12:09;;;;;;;4.10;1.58;;;10.00;99.90;;;;;;4994783;28;20064;-86
2023/04/07 06:14:35;;;;;;;4.70;1.50;;;9.90;99.90;;;;;;4994269;28;20449;-87
2023/04/07 06:17:00;;;;;;;8.70;2.30;;;9.90;99.90;;;;;;4994930;28;20040;-86
2023/04/07 06:19:26;;;;;;;4.47;2.10;;;9.90;99.90;;;;;;4993729;28;20497;-86
2023/04/07 06:21:52;;;;;;;8.18;2.53;;;10.00;99.90;;;;;;4994827;28;20014;-87
2023/04/07 06:24:21;;;;;;;5.93;1.77;;;9.80;99.90;;;;;;4994732;28;20113;-86
2023/04/07 06:26:47;;;;;;;7.65;2.17;;;9.80;99.90;;;;;;4994952;28;20018;-86
2023/04/07 06:29:13;;;;;;;5.10;2.10;;;9.90;99.90;;;;;;4994340;28;20486;-87
2023/04/07 06:31:39;;;;;;;5.85;1.95;;;9.80;99.90;;;;;;4991091;28;20078;-87
2023/04/07 06:34:23;;;;;;;12.57;3.70;;;11.20;99.90;;;;;;4994026;28;20087;-87
2023/04/07 06:36:48;;;;;;;7.57;2.30;;;10.50;99.90;;;;;;4994068;28;20053;-87
2023/04/07 06:39:31;;;;;;;12.88;2.40;;;10.20;99.90;;;;;;4994236;28;20470;-86
2023/04/07 06:41:57;;;;;;;9.30;1.90;;;10.50;99.90;;;;;;4993440;28;20037;-86
2023/04/07 06:44:22;;;;;;;6.63;1.90;;;10.50;99.90;;;;;;4994256;28;20316;-87
2023/04/07 06:47:03;;;;;;;9.30;1.83;;;11.00;99.90;;;;;;4994207;28;20037;-86
2023/04/07 06:49:29;;;;;;;7.35;2.28;;;10.00;99.90;;;;;;4993709;28;20363;-86
2023/04/07 06:51:54;;;;;;;7.15;2.00;;;10.00;99.90;;;;;;4994262;28;20069;-86
2023/04/07 06:54:29;;;;;;;2.88;1.38;;;11.50;99.90;;;;;;4993183;28;20066;-87
2023/04/07 06:57:14;;;;;;;5.32;1.52;;;10.80;99.90;;;;;;4993938;28;20121;-87
2023/04/07 06:59:40;;;;;;;6.53;1.48;;;10.60;99.90;;;;;;4994274;28;20056;-87
2023/04/07 07:02:14;;;;;;;6.35;1.83;;;10.20;99.90;;;;;;4993938;28;20492;-87
2023/04/07 07:04:40;;;;;;;8.52;2.08;;;10.90;99.90;;;;;;4990905;28;20060;-87
2023/04/07 07:07:18;;;;;;;11.15;1.98;;;10.40;99.90;;;;;;4993927;28;20026;-88
2023/04/07 07:09:56;;;;;;;5.55;1.80;;;11.40;99.90;;;;;;4990612;28;20053;-89
2023/04/07 07:12:40;;;;;;;6.85;1.80;;;10.70;99.90;;;;;;4991574;28;20034;-88
2023/04/07 07:15:06;;;;;;;9.45;3.10;;;9.60;99.90;;;;;;4991433;28;20113;-87
2023/04/07 07:17:34;;;;;;;7.03;1.80;;;10.00;99.90;;;;;;4993135;28;20031;-88
2023/04/07 07:20:18;;;;;;;7.93;1.70;;;10.80;99.90;;;;;;4994357;28;20117;-88
2023/04/07 07:23:07;;;;;;;10.80;1.92;;;10.00;99.90;;;;;;4992923;28;20375;-88
2023/04/07 07:25:33;;;;;;;9.90;1.92;;;10.10;99.90;;;;;;4993916;28;20105;-88
2023/04/07 07:28:20;;;;;;;9.88;1.85;;;10.60;99.90;;;;;;4994266;28;20109;-88
2023/04/07 07:30:46;;;;;;;7.28;1.60;;;10.00;99.90;;;;;;4992332;28;20489;-88
2023/04/07 07:35:56;;;;;;;10.45;2.20;;;10.90;99.90;;;;;;4993172;28;20038;-87
2023/04/07 07:38:22;;;;;;;6.97;1.60;;;11.20;99.90;;;;;;4993190;28;20027;-89
2023/04/07 07:41:09;;;;;;;8.02;1.60;;;11.30;99.90;;;;;;4993252;28;20037;-88
2023/04/07 07:43:36;;;;;;;5.07;1.50;;;11.30;99.90;;;;;;4993004;28;20410;-89
2023/04/07 07:46:19;;;;;;;11.57;1.60;;;10.70;99.90;;;;;;4993897;28;20085;-89
2023/04/07 07:48:45;;;;;;;7.05;1.58;;;10.70;99.90;;;;;;5002537;28;20082;-88
2023/04/07 07:51:33;;;;;;;8.90;1.60;;;10.40;99.90;;;;;;4995112;28;20046;-88
2023/04/07 07:54:18;;;;;;;3.40;1.20;;;10.00;99.90;;;;;;4993504;28;20058;-88
2023/04/07 07:57:03;;;;;;;6.60;1.73;;;10.80;99.90;;;;;;4993162;28;20410;-89
2023/04/07 07:59:49;;;;;;;6.20;1.60;;;9.90;99.90;;;;;;5029605;22;20401;-89
2023/04/07 08:02:15;;;;;;;9.52;1.33;;;9.90;99.90;;;;;;4953943;28;20251;-90
2023/04/07 08:05:31;;;;;;;12.55;1.77;;;10.80;99.90;;;;;;5032887;23;20144;-89
2023/04/07 08:08:00;;;;;;;9.15;1.70;;;9.50;99.90;;;;;;5013537;28;20030;-91
2023/04/07 08:10:41;;;;;;;6.72;1.50;;;10.90;99.90;;;;;;5013036;28;20148;-90
2023/04/07 08:13:06;;;;;;;18.13;2.05;;;10.60;99.90;;;;;;5033659;22;20068;-91
2023/04/07 08:15:54;;;;;;;13.90;1.60;;;10.10;99.90;;;;;;5047949;22;20056;-90
2023/04/07 08:18:20;;;;;;;6.20;1.90;;;11.20;99.90;;;;;;5013512;28;20103;-90
2023/04/07 08:21:02;;;;;;;11.52;2.08;;;10.00;99.90;;;;;;5020149;22;20425;-88
2023/04/07 08:23:57;;;;;;;10.18;2.20;;;11.00;99.90;;;;;;4993052;28;20030;-89
2023/04/07 08:26:34;;;;;;;11.35;2.28;;;10.10;99.90;;;;;;4888706;28;20037;-91
2023/04/07 08:29:00;;;;;;;6.30;1.50;;;9.90;99.90;;;;;;4993818;28;20026;-89
2023/04/07 08:31:26;;;;;;;8.80;3.17;;;10.90;99.90;;;;;;4996567;28;20050;-89
2023/04/07 08:34:12;;;;;;;14.15;2.80;;;10.00;99.90;;;;;;4999658;28;20060;-90
2023/04/07 08:36:38;;;;;;;19.25;2.80;;;10.60;99.90;;;;;;5009410;28;20053;-89
2023/04/07 08:39:24;;;;;;;14.35;3.22;;;10.90;99.90;;;;;;5012834;28;20057;-91
2023/04/07 08:41:50;;;;;;;13.93;2.70;;;10.10;99.90;;;;;;5012808;28;20473;-90
2023/04/07 08:44:16;;;;;;;14.32;2.20;;;10.80;99.90;;;;;;5013203;28;20105;-92
2023/04/07 08:47:00;;;;;;;11.38;2.20;;;10.50;99.90;;;;;;5012475;28;20030;-88
2023/04/07 08:52:21;;;;;;;22.63;2.83;;;10.80;99.90;;;;;;5012376;28;20037;-90
2023/04/07 08:54:54;;;;;;;8.63;2.53;;;10.90;99.90;;;;;;5012661;28;20481;-90
2023/04/07 08:57:36;;;;;;;6.68;1.60;;;10.80;99.90;;;;;;5014917;28;20029;-89
2023/04/07 09:00:09;;;;;;;14.38;1.92;;;10.40;99.90;;;;;;5015052;28;20041;-89
2023/04/07 09:02:50;;;;;;;9.73;3.20;;;10.10;99.90;;;;;;5014221;28;20549;-89
2023/04/07 09:05:16;;;;;;;10.95;2.22;;;10.00;99.90;;;;;;5016458;28;20036;-89
2023/04/07 09:07:51;;;;;;;10.85;2.70;;;11.40;99.90;;;;;;5014217;28;20022;-90
2023/04/07 09:10:38;;;;;;;7.07;2.33;;;10.80;99.90;;;;;;5014609;28;20022;-90
2023/04/07 09:13:03;;;;;;;12.43;2.60;;;10.20;99.90;;;;;;5016944;28;20401;-89
2023/04/07 09:15:40;;;;;;;9.85;2.10;;;11.60;99.90;;;;;;5013441;28;20022;-90
2023/04/07 09:18:24;;;;;;;14.32;2.60;;;10.80;99.90;;;;;;5013608;28;20041;-89
2023/04/07 09:21:15;;;;;;;8.77;2.30;;;10.80;99.90;;;;;;5012199;28;20049;-90
2023/04/07 09:24:31;;;;;;;13.18;1.65;;;10.10;99.90;;;;;;5014041;28;20080;-89
2023/04/07 09:27:17;;;;;;;14.05;2.53;;;10.10;99.90;;;;;;5014925;28;20426;-89
2023/04/07 09:29:45;;;;;;;11.57;1.95;;;10.30;99.90;;;;;;5013871;28;20501;-89
2023/04/07 09:32:53;;;;;;;8.07;2.40;;;10.70;99.90;;;;;;5016243;28;20038;-89
2023/04/07 09:35:21;;;;;;;12.70;3.17;;;9.90;99.90;;;;;;5016209;28;20022;-90
2023/04/07 09:38:08;;;;;;;8.77;2.13;;;10.70;99.90;;;;;;5015598;28;20018;-89
2023/04/07 09:40:47;;;;;;;12.73;2.55;;;10.90;99.90;;;;;;5015548;28;20049;-90
2023/04/07 09:43:40;;;;;;;11.85;2.33;;;10.80;99.90;;;;;;5013903;28;20084;-89
2023/04/07 09:46:17;;;;;;;11.38;2.08;;;10.20;99.90;;;;;;4957834;28;20037;-88
2023/04/07 09:49:04;;;;;;;16.08;2.75;;;11.00;99.90;;;;;;5037828;22;20068;-89
2023/04/07 09:51:29;;;;;;;14.85;2.25;;;10.30;99.90;;;;;;5034031;28;20044;-88
2023/04/07 09:54:12;;;;;;;15.90;2.08;;;10.20;99.90;;;;;;5034984;28;20392;-87
2023/04/07 09:56:38;;;;;;;10.57;1.77;;;11.00;99.90;;;;;;5034010;28;20108;-89
2023/04/07 09:59:22;;;;;;;17.52;2.88;;;10.80;99.90;;;;;;5038064;22;20101;-90
2023/04/07 10:01:48;;;;;;;10.88;2.03;;;10.10;99.90;;;;;;5018037;28;20448;-85
2023/04/07 10:04:27;;;;;;;11.55;2.50;;;10.30;99.90;;;;;;5019578;28;20029;-86
2023/04/07 10:06:54;;;;;;;9.10;3.13;;;10.20;99.90;;;;;;5016082;28;20026;-89
2023/04/07 10:09:24;;;;;;;15.60;3.17;;;11.00;99.90;;;;;;5012289;28;20117;-88
2023/04/07 10:11:51;;;;;;;16.48;2.90;;;10.30;99.90;;;;;;5011685;28;20429;-88
2023/04/07 10:14:35;;;;;;;8.70;2.67;;;11.10;99.90;;;;;;5014504;28;20393;-89
2023/04/07 10:19:45;;;;;;;9.65;2.80;;;10.30;99.90;;;;;;5016521;22;20132;-88
2023/04/07 10:22:31;;;;;;;15.13;3.55;;;10.70;99.90;;;;;;5012478;28;20022;-90
2023/04/07 10:25:36;;;;;;;;;;;;;;;;;;;;;
2023/04/07 10:28:20;;;;;;;9.65;2.92;;;10.30;99.90;;;;;;4965869;28;20030;-89
2023/04/07 10:30:47;;;;;;;13.98;3.63;;;11.00;99.90;;;;;;5011828;28;20473;-91
2023/04/07 10:34:01;;;;;;;12.57;2.80;;;11.10;99.90;;;;;;5012230;28;20041;-88
2023/04/07 10:36:28;;;;;;;10.68;2.72;;;9.50;99.90;;;;;;5010198;28;20109;-88
2023/04/07 10:39:05;;;;;;;11.57;3.03;;;10.90;99.90;;;;;;5013563;28;20026;-88
2023/04/07 10:41:37;;;;;;;12.57;3.25;;;10.00;99.90;;;;;;5013426;28;20037;-87
2023/04/07 10:44:24;;;;;;;11.90;2.90;;;10.40;99.90;;;;;;5014485;28;20050;-87
2023/04/07 10:47:04;;;;;;;11.20;2.70;;;10.30;99.90;;;;;;4981807;28;20457;-88
2023/04/07 10:49:31;;;;;;;9.20;2.33;;;11.40;99.90;;;;;;5013445;28;20053;-87
2023/04/07 10:52:11;;;;;;;12.30;2.47;;;10.40;99.90;;;;;;5012249;28;20042;-87
2023/04/07 10:54:40;;;;;;;12.60;2.40;;;10.40;99.90;;;;;;5012983;28;20552;-91
2023/04/07 10:57:20;;;;;;;11.13;2.72;;;10.50;99.90;;;;;;5011509;28;20057;-87
2023/04/07 11:00:10;;;;;;;13.20;3.17;;;10.40;99.90;;;;;;5012697;28;20385;-86
2023/04/07 11:02:48;;;;;;;;;;;11.10;99.90;;;;;;5013272;28;20042;-88
2023/04/07 11:05:27;;;;;;;7.72;2.70;;;10.50;99.90;;;;;;5012108;28;19963;-87
2023/04/07 11:07:58;;;;;;;9.00;2.22;;;10.60;99.90;;;;;;5010441;28;20044;-86
2023/04/07 11:10:38;;;;;;;;;;;10.60;99.90;;;;;;5016154;28;20117;-87
2023/04/07 11:13:06;;;;;;;14.73;2.70;;;11.10;99.90;;;;;;5008264;28;19919;-86
2023/04/07 11:15:33;;;;;;;6.82;2.70;;;10.60;99.90;;;;;;5010842;28;20080;-86
2023/04/07 11:18:17;;;;;;;12.18;2.42;;;10.50;99.90;;;;;;5014070;28;20510;-86
2023/04/07 11:20:57;;;;;;;11.30;2.47;;;10.50;99.90;;;;;;5009647;28;20421;-87
2023/04/07 11:23:27;;;;;;;13.07;2.70;;;10.40;99.90;;;;;;5010953;28;20025;-86
2023/04/07 11:26:00;;;;;;;23.73;3.05;;;10.50;99.90;;;;;;5014339;28;20057;-86
2023/04/07 11:28:27;;;;;;;17.98;3.33;;;10.50;99.90;;;;;;5011188;28;20247;-86
2023/04/07 11:30:53;;;;;;;12.35;2.78;;;10.50;99.90;;;;;;5012791;28;20042;-86
2023/04/07 11:33:21;;;;;;;8.95;2.90;;;11.50;99.90;;;;;;5007395;28;20029;-86
2023/04/07 11:35:49;;;;;;;15.63;2.67;;;10.50;99.90;;;;;;5010006;28;20024;-85
2023/04/07 11:38:15;;;;;;;21.77;4.55;;;10.50;99.90;;;;;;5008154;28;20638;-86
2023/04/07 11:40:41;;;;;;;18.33;3.47;;;10.50;99.90;;;;;;5010614;28;20014;-86
2023/04/07 11:43:21;;;;;;;13.68;2.92;;;10.50;99.90;;;;;;5011324;28;20032;-86
2023/04/07 11:46:03;;;;;;;18.67;3.45;;;10.60;99.90;;;;;;5010517;28;20470;-86
2023/04/07 11:48:30;;;;;;;7.00;2.50;;;10.50;99.90;;;;;;5010514;28;20034;-86
2023/04/07 11:50:55;;;;;;;17.55;2.85;;;10.70;99.90;;;;;;5011473;28;20022;-87
2023/04/07 11:53:29;;;;;;;14.77;2.75;;;10.50;99.90;;;;;;5002883;28;20386;-87
2023/04/07 11:56:02;;;;;;;12.77;3.13;;;10.80;99.90;;;;;;5002248;28;20046;-87
2023/04/07 11:58:28;;;;;;;15.45;3.05;;;10.40;99.90;;;;;;5002736;28;20022;-87
2023/04/07 12:01:02;;;;;;;14.25;3.65;;;10.40;99.90;;;;;;5004378;28;20015;-87
2023/04/07 12:03:28;;;;;;;19.80;4.35;;;10.50;99.90;;;;;;5003856;28;20084;-87
2023/04/07 12:05:54;;;;;;;16.45;3.60;;;10.40;99.90;;;;;;5007319;28;20368;-86
2023/04/07 12:08:20;;;;;;;14.63;3.00;;;10.40;99.90;;;;;;5003173;28;20042;-89
2023/04/07 12:11:01;;;;;;;11.27;3.83;;;10.50;99.90;;;;;;5003130;28;20054;-88
2023/04/07 12:13:27;;;;;;;22.83;3.88;;;11.30;99.90;;;;;;5006927;28;20071;-88
2023/04/07 12:15:52;;;;;;;16.08;3.88;;;11.40;99.90;;;;;;5004146;28;20025;-90
2023/04/07 12:18:18;;;;;;;13.18;3.45;;;11.30;99.90;;;;;;5026478;22;20065;-88
2023/04/07 12:20:43;;;;;;;14.77;4.05;;;10.50;99.90;;;;;;4983190;28;20410;-88
2023/04/07 12:23:09;;;;;;;17.85;4.00;;;10.50;99.90;;;;;;4988485;28;20064;-89
2023/04/07 12:25:35;;;;;;;21.92;5.50;;;10.40;99.90;;;;;;4982329;28;20050;-89
2023/04/07 12:28:00;;;;;;;17.23;4.82;;;10.40;99.90;;;;;;4979192;28;20105;-88
2023/04/07 12:30:26;;;;;;;14.82;4.68;;;10.40;99.90;;;;;;4981063;28;20371;-88
2023/04/07 12:32:52;;;;;;;16.80;4.78;;;10.40;99.90;;;;;;4983099;28;20038;-87
2023/04/07 12:35:17;;;;;;;12.48;4.75;;;10.40;99.90;;;;;;4986223;28;20027;-88
2023/04/07 12:37:56;;;;;;;20.92;5.05;;;10.70;99.90;;;;;;4984936;28;20034;-87
2023/04/07 12:40:31;;;;;;;15.15;4.45;;;10.40;99.90;;;;;;4985106;28;20030;-87
2023/04/07 12:42:57;;;;;;;16.60;3.67;;;10.50;99.90;;;;;;4989070;28;20038;-87
2023/04/07 12:45:23;;;;;;;20.27;3.97;;;10.50;99.90;;;;;;4985048;28;20491;-87
2023/04/07 12:47:48;;;;;;;22.33;3.85;;;10.50;99.90;;;;;;4986930;28;20030;-87
2023/04/07 12:50:14;;;;;;;17.35;4.68;;;10.60;99.90;;;;;;4984707;28;20360;-89
2023/04/07 12:52:40;;;;;;;17.02;3.78;;;10.60;99.90;;;;;;4988225;28;20045;-86
2023/04/07 12:55:06;;;;;;;16.23;3.97;;;10.60;99.90;;;;;;4994871;28;20022;-89
2023/04/07 12:57:32;;;;;;;12.10;3.55;;;10.50;99.90;;;;;;4990288;28;20033;-89
2023/04/07 12:59:57;;;;;;;21.15;4.18;;;11.80;99.90;;;;;;4988575;28;20486;-87
2023/04/07 13:02:23;;;;;;;13.23;3.70;;;10.60;99.90;;;;;;4987467;28;20497;-86
2023/04/07 13:04:48;;;;;;;12.50;3.55;;;10.60;99.90;;;;;;4995238;28;20029;-88
2023/04/07 13:07:15;;;;;;;13.68;3.70;;;10.60;99.90;;;;;;4986989;28;20053;-86
2023/04/07 13:09:42;;;;;;;10.35;2.40;;;10.50;99.90;;;;;;4985856;28;20053;-88
2023/04/07 13:12:10;;;;;;;14.35;2.80;;;10.60;99.90;;;;;;4980481;28;20046;-86
2023/04/07 13:14:36;;;;;;;11.35;2.45;;;10.50;99.90;;;;;;4983156;28;20062;-87
2023/04/07 13:17:02;;;;;;;17.23;3.40;;;10.50;99.90;;;;;;4978585;28;20050;-87